Time;durP1;ratioP1;P1;durP2;ratioP2;P2;SDS_P1;SDS_P2;PMS_P1;PMS_P2;Temp;Humidity;BMP_temperature;BMP_pressure;BME280_temperature;BME280_humidity;BME280_pressure;Samples;Min_cycle;Max_cycle;Signal;HPM_P1;HPM_P2
2022/11/21 00:00:56;;;;;;;11.60;8.07;;;2.70;89.60;;;;;;5016270;28;20775;-61
2022/11/21 00:03:23;;;;;;;10.47;7.60;;;2.70;89.60;;;;;;5005394;28;20440;-62
2022/11/21 00:05:49;;;;;;;14.30;8.07;;;2.70;89.70;;;;;;5006086;28;20815;-61
2022/11/21 00:08:16;;;;;;;11.63;8.27;;;2.60;89.70;;;;;;5015803;28;20474;-62
2022/11/21 00:10:42;;;;;;;12.47;7.90;;;2.60;89.70;;;;;;5043143;28;20208;-62
2022/11/21 00:13:13;;;;;;;11.70;8.43;;;2.60;89.70;;;;;;4998997;28;21032;-61
2022/11/21 00:15:38;;;;;;;10.60;7.90;;;2.50;89.70;;;;;;5011834;28;20196;-61
2022/11/21 00:18:04;;;;;;;10.73;7.77;;;2.50;89.70;;;;;;5043151;28;20450;-61
2022/11/21 00:20:30;;;;;;;11.23;8.53;;;2.40;89.70;;;;;;5014051;28;20250;-62
2022/11/21 00:22:56;;;;;;;8.83;7.13;;;2.40;89.70;;;;;;5041917;28;20195;-61
2022/11/21 00:25:22;;;;;;;10.57;7.20;;;2.40;89.70;;;;;;4999223;28;20427;-61
2022/11/21 00:27:47;;;;;;;11.40;7.90;;;2.40;89.80;;;;;;5012810;28;20294;-61
2022/11/21 00:30:14;;;;;;;10.67;7.10;;;2.30;89.80;;;;;;4999781;28;20188;-61
2022/11/21 00:32:40;;;;;;;10.47;7.40;;;2.30;89.90;;;;;;5031963;28;20199;-61
2022/11/21 00:35:06;;;;;;;12.70;8.67;;;2.30;90.00;;;;;;5014786;28;20435;-61
2022/11/21 00:37:32;;;;;;;15.37;9.33;;;2.30;90.10;;;;;;5015595;28;20188;-61
2022/11/21 00:39:58;;;;;;;12.47;7.83;;;2.30;90.10;;;;;;5012912;28;20191;-62
2022/11/21 00:42:24;;;;;;;12.20;7.90;;;2.30;90.20;;;;;;5009519;28;20436;-61
2022/11/21 00:44:49;;;;;;;9.33;7.00;;;2.30;90.30;;;;;;5015383;28;20219;-61
2022/11/21 00:47:15;;;;;;;9.63;7.83;;;2.40;90.40;;;;;;5014871;28;20194;-62
2022/11/21 00:49:41;;;;;;;13.33;7.63;;;2.30;90.30;;;;;;5002079;28;20212;-61
2022/11/21 00:52:07;;;;;;;10.17;7.23;;;2.30;90.30;;;;;;4998966;28;20634;-62
2022/11/21 00:54:32;;;;;;;12.10;7.60;;;2.30;90.20;;;;;;5033361;28;20187;-62
2022/11/21 00:56:58;;;;;;;10.43;6.97;;;2.30;90.10;;;;;;4998622;28;20227;-61
2022/11/21 00:59:24;;;;;;;10.03;7.10;;;2.30;90.10;;;;;;5035415;28;20303;-61
2022/11/21 01:01:49;;;;;;;9.43;7.13;;;2.30;90.10;;;;;;5023962;28;20275;-61
2022/11/21 01:04:15;;;;;;;11.77;7.07;;;2.30;90.20;;;;;;5016057;28;20233;-61
2022/11/21 01:06:40;;;;;;;9.87;6.93;;;2.20;90.20;;;;;;5015482;28;20241;-62
2022/11/21 01:09:06;;;;;;;8.90;6.27;;;2.20;90.10;;;;;;5015073;28;20219;-61
2022/11/21 01:11:32;;;;;;;9.87;7.13;;;2.20;90.10;;;;;;5013723;28;20191;-62
2022/11/21 01:13:58;;;;;;;12.03;7.23;;;2.20;90.10;;;;;;5014914;28;20230;-61
2022/11/21 01:16:25;;;;;;;8.33;6.40;;;2.10;90.10;;;;;;5037257;28;20188;-61
2022/11/21 01:18:51;;;;;;;7.97;6.73;;;2.20;90.10;;;;;;5014014;28;20235;-61
2022/11/21 01:21:26;;;;;;;9.37;6.57;;;2.10;90.00;;;;;;5031778;28;20446;-62
2022/11/21 01:23:52;;;;;;;10.13;6.67;;;2.00;90.00;;;;;;5014856;28;20427;-61
2022/11/21 01:26:22;;;;;;;8.73;6.83;;;2.10;90.10;;;;;;5031537;28;20471;-62
2022/11/21 01:28:48;;;;;;;9.13;5.67;;;2.10;90.10;;;;;;5015348;28;20533;-61
2022/11/21 01:31:22;;;;;;;8.03;6.33;;;2.00;90.10;;;;;;5014720;28;20570;-61
2022/11/21 01:33:48;;;;;;;8.03;6.00;;;2.00;90.10;;;;;;5013888;28;20432;-61
2022/11/21 01:36:16;;;;;;;9.40;6.80;;;2.10;90.10;;;;;;5015445;28;20440;-61
2022/11/21 01:38:45;;;;;;;10.00;5.97;;;2.00;90.10;;;;;;5014872;28;20439;-62
2022/11/21 01:41:12;;;;;;;9.97;6.53;;;2.00;90.10;;;;;;5014076;28;20974;-62
2022/11/21 01:43:38;;;;;;;11.93;7.67;;;2.00;90.10;;;;;;5013979;28;20436;-61
2022/11/21 01:46:07;;;;;;;11.07;7.00;;;2.00;90.10;;;;;;4997555;28;20449;-62
2022/11/21 01:48:51;;;;;;;8.07;6.07;;;2.00;90.10;;;;;;5030431;28;20214;-61
2022/11/21 01:51:27;;;;;;;9.20;5.93;;;2.00;90.10;;;;;;5014151;28;20422;-62
2022/11/21 01:53:56;;;;;;;8.33;5.63;;;2.00;90.00;;;;;;5014281;28;20444;-61
2022/11/21 01:56:24;;;;;;;10.43;6.80;;;2.00;90.00;;;;;;5017970;28;20423;-62
2022/11/21 01:58:52;;;;;;;8.43;6.23;;;2.00;90.00;;;;;;5014293;28;20439;-61
2022/11/21 02:01:18;;;;;;;10.30;6.63;;;2.00;90.00;;;;;;5014905;28;20481;-62
2022/11/21 02:03:45;;;;;;;7.27;5.90;;;2.00;90.00;;;;;;5013875;28;20462;-62
2022/11/21 02:06:11;;;;;;;7.93;5.40;;;2.00;90.00;;;;;;5035219;28;20441;-62
2022/11/21 02:08:39;;;;;;;9.00;6.53;;;2.00;90.00;;;;;;5013649;28;20512;-62
2022/11/21 02:11:25;;;;;;;6.67;5.03;;;1.90;90.00;;;;;;5009887;28;20430;-61
2022/11/21 02:13:51;;;;;;;6.53;5.40;;;2.00;89.90;;;;;;5014382;28;20415;-61
2022/11/21 02:16:16;;;;;;;7.07;5.57;;;1.90;89.90;;;;;;5011899;28;20437;-61
2022/11/21 02:18:42;;;;;;;10.17;6.27;;;1.90;89.80;;;;;;4996724;28;20438;-62
2022/11/21 02:21:20;;;;;;;7.30;5.40;;;1.90;89.80;;;;;;4996931;28;20203;-62
2022/11/21 02:23:58;;;;;;;9.73;5.77;;;1.90;89.80;;;;;;5014148;28;20190;-62
2022/11/21 02:26:24;;;;;;;7.97;6.60;;;1.90;89.80;;;;;;5013500;28;20434;-62
2022/11/21 02:28:50;;;;;;;7.13;5.43;;;1.90;89.80;;;;;;5013313;28;20477;-61
2022/11/21 02:31:15;;;;;;;8.67;6.43;;;1.90;89.80;;;;;;5013793;28;20218;-61
2022/11/21 02:33:41;;;;;;;9.83;6.40;;;1.90;89.80;;;;;;4998602;28;20713;-62
2022/11/21 02:36:35;;;;;;;7.57;5.77;;;1.80;89.90;;;;;;5015498;28;20638;-61
2022/11/21 02:39:02;;;;;;;8.77;6.30;;;1.90;89.90;;;;;;5020886;28;20254;-61
2022/11/21 02:41:29;;;;;;;8.43;5.53;;;1.90;89.90;;;;;;5007327;28;20457;-62
2022/11/21 02:44:01;;;;;;;7.63;5.63;;;1.90;89.90;;;;;;5013077;28;20435;-62
2022/11/21 02:46:27;;;;;;;8.47;6.17;;;1.90;89.80;;;;;;5012452;28;20439;-62
2022/11/21 02:48:53;;;;;;;8.03;6.57;;;1.90;89.70;;;;;;4996745;28;20472;-61
2022/11/21 02:51:19;;;;;;;8.27;5.63;;;1.90;89.60;;;;;;4996290;28;20455;-61
2022/11/21 02:53:45;;;;;;;7.83;5.70;;;1.90;89.40;;;;;;4995879;28;20482;-62
2022/11/21 02:56:11;;;;;;;6.70;5.47;;;1.80;89.50;;;;;;4992953;28;20194;-61
2022/11/21 02:58:36;;;;;;;7.43;5.33;;;1.80;89.40;;;;;;5012878;28;20191;-61
2022/11/21 03:01:02;;;;;;;8.23;5.63;;;1.80;89.40;;;;;;4997728;28;20192;-61
2022/11/21 03:03:28;;;;;;;7.53;5.77;;;1.80;89.50;;;;;;5009067;28;20200;-62
2022/11/21 03:05:54;;;;;;;7.73;5.73;;;1.70;89.30;;;;;;5031031;28;20227;-62
2022/11/21 03:08:20;;;;;;;8.83;5.83;;;1.70;89.30;;;;;;4996977;28;20310;-62
2022/11/21 03:10:45;;;;;;;8.30;5.97;;;1.60;89.30;;;;;;4994141;28;20513;-62
2022/11/21 03:13:11;;;;;;;5.57;4.57;;;1.70;89.40;;;;;;5002585;28;20192;-62
2022/11/21 03:15:37;;;;;;;8.40;5.17;;;1.60;89.40;;;;;;5001547;28;20195;-61
2022/11/21 03:18:03;;;;;;;8.10;5.77;;;1.60;89.40;;;;;;5008005;28;20196;-61
2022/11/21 03:20:31;;;;;;;6.30;5.23;;;1.60;89.40;;;;;;5013209;28;20235;-61
2022/11/21 03:22:56;;;;;;;7.40;6.20;;;1.60;89.50;;;;;;5037802;28;20437;-62
2022/11/21 03:25:22;;;;;;;9.20;6.03;;;1.60;89.50;;;;;;4993203;28;20444;-62
2022/11/21 03:27:52;;;;;;;6.20;5.27;;;1.60;89.50;;;;;;5012426;28;20191;-62
2022/11/21 03:30:19;;;;;;;7.50;5.97;;;1.60;89.50;;;;;;5012835;28;20188;-62
2022/11/21 03:32:45;;;;;;;7.13;5.20;;;1.60;89.60;;;;;;5032956;28;20431;-61
2022/11/21 03:35:11;;;;;;;8.63;5.60;;;1.60;89.60;;;;;;4998085;28;20449;-61
2022/11/21 03:37:37;;;;;;;7.83;5.43;;;1.60;89.60;;;;;;5013313;28;20207;-62
2022/11/21 03:40:03;;;;;;;7.83;6.00;;;1.60;89.60;;;;;;5016365;28;20188;-61
2022/11/21 03:42:29;;;;;;;8.93;6.27;;;1.60;89.60;;;;;;5016719;28;20202;-62
2022/11/21 03:44:54;;;;;;;7.93;5.97;;;1.60;89.60;;;;;;5016564;28;20434;-61
2022/11/21 03:47:20;;;;;;;7.83;5.83;;;1.70;89.70;;;;;;5017205;28;20191;-61
2022/11/21 03:49:45;;;;;;;8.50;6.07;;;1.70;89.70;;;;;;5000305;28;20222;-61
2022/11/21 03:52:11;;;;;;;8.53;6.33;;;1.70;89.80;;;;;;5016266;28;20643;-61
2022/11/21 03:54:37;;;;;;;7.83;6.00;;;1.80;89.70;;;;;;4995294;28;20184;-61
2022/11/21 03:57:02;;;;;;;7.93;6.77;;;1.80;89.70;;;;;;4999987;28;20184;-61
2022/11/21 03:59:28;;;;;;;8.87;6.23;;;1.80;89.70;;;;;;4998965;28;20238;-61
2022/11/21 04:01:53;;;;;;;9.83;6.70;;;1.90;89.70;;;;;;5015298;28;20196;-61
2022/11/21 04:04:19;;;;;;;9.50;7.20;;;1.90;89.70;;;;;;4996292;28;20196;-62
2022/11/21 04:06:45;;;;;;;9.67;7.33;;;1.90;89.80;;;;;;4996489;28;20188;-62
2022/11/21 04:09:10;;;;;;;9.87;7.67;;;2.00;89.70;;;;;;4997264;28;20687;-61
2022/11/21 04:11:36;;;;;;;8.13;6.87;;;2.00;89.60;;;;;;5008066;28;20192;-61
2022/11/21 04:14:02;;;;;;;6.47;5.70;;;2.10;89.50;;;;;;4998035;28;20214;-62
2022/11/21 04:16:28;;;;;;;11.57;6.80;;;2.20;89.50;;;;;;4998830;28;20443;-61
2022/11/21 04:18:53;;;;;;;9.70;7.37;;;2.20;89.40;;;;;;5029938;28;20231;-62
2022/11/21 04:21:19;;;;;;;9.53;6.47;;;2.20;89.20;;;;;;5015970;28;20219;-62
2022/11/21 04:23:45;;;;;;;9.27;6.47;;;2.20;89.20;;;;;;4999637;28;20715;-61
2022/11/21 04:26:10;;;;;;;8.80;6.07;;;2.20;89.30;;;;;;5000495;28;20267;-62
2022/11/21 04:28:37;;;;;;;9.10;5.87;;;2.30;89.30;;;;;;5015528;28;20218;-61
2022/11/21 04:31:07;;;;;;;7.80;5.80;;;2.30;89.20;;;;;;4999899;28;20234;-61
2022/11/21 04:33:33;;;;;;;9.87;6.30;;;2.30;89.20;;;;;;5015417;28;20434;-62
2022/11/21 04:39:03;;;;;;;7.90;6.53;;;2.30;89.20;;;;;;3892092;28;20222;-65
2022/11/21 04:41:47;;;;;;;10.03;7.13;;;2.30;89.30;;;;;;4975060;28;20433;-63
2022/11/21 04:44:13;;;;;;;11.57;7.90;;;2.30;89.30;;;;;;4103991;28;20546;-61
2022/11/21 04:46:38;;;;;;;13.70;7.73;;;2.30;89.30;;;;;;5009871;28;20553;-62
2022/11/21 04:49:04;;;;;;;12.87;8.03;;;2.40;89.30;;;;;;4998656;28;20215;-62
2022/11/21 04:51:30;;;;;;;11.30;7.10;;;2.40;89.30;;;;;;5014755;28;20218;-62
2022/11/21 04:53:55;;;;;;;12.30;7.67;;;2.40;89.30;;;;;;5014582;28;20219;-62
2022/11/21 04:56:21;;;;;;;11.20;7.77;;;2.40;89.40;;;;;;5014620;28;20188;-62
2022/11/21 04:58:46;;;;;;;12.20;7.43;;;2.40;89.40;;;;;;4998236;28;20230;-62
2022/11/21 05:01:12;;;;;;;12.90;7.57;;;2.40;89.40;;;;;;4998810;28;20195;-62
2022/11/21 05:03:38;;;;;;;14.70;8.63;;;2.40;89.30;;;;;;4999037;28;20251;-62
2022/11/21 05:06:04;;;;;;;13.03;8.33;;;2.40;89.40;;;;;;5015046;28;20198;-62
2022/11/21 05:08:29;;;;;;;14.03;8.37;;;2.40;89.40;;;;;;5015211;28;20212;-62
2022/11/21 05:13:39;;;;;;;11.27;7.57;;;2.40;89.40;;;;;;5015078;28;20191;-62
2022/11/21 05:16:05;;;;;;;12.83;7.87;;;2.40;89.40;;;;;;5014671;28;20442;-62
2022/11/21 05:18:30;;;;;;;11.77;7.53;;;2.40;89.30;;;;;;5004448;28;20195;-63
2022/11/21 05:20:56;;;;;;;11.97;8.07;;;2.40;89.30;;;;;;4998640;28;20204;-61
2022/11/21 05:23:22;;;;;;;10.70;7.47;;;2.50;89.40;;;;;;5014391;28;20219;-62
2022/11/21 05:25:47;;;;;;;11.33;7.50;;;2.40;89.40;;;;;;5028214;28;20195;-62
2022/11/21 05:28:13;;;;;;;9.77;7.27;;;2.40;89.30;;;;;;4999330;28;20467;-62
2022/11/21 05:30:39;;;;;;;11.93;7.10;;;2.40;89.30;;;;;;4994568;28;20188;-62
2022/11/21 05:33:05;;;;;;;8.30;6.53;;;2.40;89.30;;;;;;4997810;28;20198;-61
2022/11/21 05:35:30;;;;;;;9.97;6.87;;;2.40;89.30;;;;;;5035254;28;20649;-61
2022/11/21 05:37:57;;;;;;;11.40;6.90;;;2.40;89.20;;;;;;4999327;28;20469;-62
2022/11/21 05:40:24;;;;;;;14.30;8.43;;;2.40;89.20;;;;;;4997485;28;20200;-62
2022/11/21 05:45:34;;;;;;;11.23;8.00;;;2.40;89.30;;;;;;5014488;28;20472;-63
2022/11/21 05:48:00;;;;;;;8.57;6.63;;;2.50;89.30;;;;;;5013638;28;20470;-62
2022/11/21 05:50:25;;;;;;;9.40;6.97;;;2.50;89.20;;;;;;4997786;28;20192;-62
2022/11/21 05:52:51;;;;;;;6.90;5.87;;;2.50;89.20;;;;;;5002221;28;20239;-62
2022/11/21 05:55:16;;;;;;;9.93;6.43;;;2.50;89.20;;;;;;5012439;28;20220;-62
2022/11/21 05:57:42;;;;;;;10.30;7.47;;;2.60;89.10;;;;;;4993638;28;20200;-63
2022/11/21 06:00:09;;;;;;;9.93;7.27;;;2.60;89.00;;;;;;3803407;28;21633;-62
2022/11/21 06:05:19;;;;;;;7.10;5.90;;;2.60;89.10;;;;;;4196556;28;20421;-61
2022/11/21 06:07:45;;;;;;;11.40;6.83;;;2.60;89.00;;;;;;4793979;28;20427;-60
2022/11/21 06:10:10;;;;;;;9.67;6.87;;;2.60;89.00;;;;;;5013863;28;20227;-61
2022/11/21 06:12:36;;;;;;;9.83;6.83;;;2.60;88.90;;;;;;5022875;28;20184;-60
2022/11/21 06:15:02;;;;;;;9.03;6.53;;;2.60;88.80;;;;;;5017494;28;20286;-61
2022/11/21 06:17:28;;;;;;;8.90;6.27;;;2.60;88.90;;;;;;5034138;28;20238;-60
2022/11/21 06:19:53;;;;;;;7.70;6.17;;;2.60;88.90;;;;;;4994029;28;20243;-60
2022/11/21 06:22:19;;;;;;;12.13;6.77;;;2.60;88.90;;;;;;4993921;28;20191;-60
2022/11/21 06:24:45;;;;;;;8.43;5.87;;;2.70;88.90;;;;;;5011707;28;20206;-60
2022/11/21 06:27:10;;;;;;;8.57;5.57;;;2.70;88.90;;;;;;4998253;28;20202;-59
2022/11/21 06:29:36;;;;;;;6.47;5.67;;;2.70;88.90;;;;;;4996092;28;20234;-60
2022/11/21 06:32:02;;;;;;;9.13;6.67;;;2.70;88.90;;;;;;5001914;28;20192;-60
2022/11/21 06:34:27;;;;;;;8.93;6.50;;;2.70;88.90;;;;;;4996920;28;20214;-61
2022/11/21 06:36:53;;;;;;;10.00;6.90;;;2.80;88.90;;;;;;4993006;28;20192;-61
2022/11/21 06:39:18;;;;;;;13.53;9.30;;;2.80;88.80;;;;;;4996925;28;20195;-61
2022/11/21 06:41:49;;;;;;;12.40;8.60;;;2.80;88.50;;;;;;4997395;28;20200;-61
2022/11/21 06:44:16;;;;;;;11.03;7.87;;;2.80;88.50;;;;;;5011616;28;20191;-61
2022/11/21 06:46:42;;;;;;;11.33;8.40;;;2.80;88.50;;;;;;5017708;28;21007;-61
2022/11/21 06:49:07;;;;;;;10.43;7.93;;;2.80;88.50;;;;;;4997754;28;20462;-61
2022/11/21 06:51:33;;;;;;;10.80;7.47;;;2.80;88.40;;;;;;4996702;28;20191;-61
2022/11/21 06:53:59;;;;;;;9.73;7.60;;;2.80;88.40;;;;;;4994394;28;20255;-62
2022/11/21 06:56:28;;;;;;;10.50;8.13;;;2.80;88.50;;;;;;4994188;28;20192;-61
2022/11/21 06:58:54;;;;;;;10.67;7.77;;;2.80;88.60;;;;;;5009911;28;20436;-61
2022/11/21 07:01:20;;;;;;;11.70;8.30;;;2.90;88.60;;;;;;5011697;28;20434;-61
2022/11/21 07:03:46;;;;;;;9.20;7.50;;;3.00;88.60;;;;;;4995798;28;20446;-61
2022/11/21 07:06:12;;;;;;;10.27;7.50;;;3.00;88.70;;;;;;4994856;28;20200;-61
2022/11/21 07:08:39;;;;;;;9.93;7.10;;;3.00;88.70;;;;;;5011879;28;20212;-61
2022/11/21 07:11:11;;;;;;;9.37;6.50;;;3.10;88.80;;;;;;5030258;28;20708;-61
2022/11/21 07:13:37;;;;;;;9.17;7.30;;;3.20;88.70;;;;;;5014595;28;20427;-61
2022/11/21 07:16:05;;;;;;;9.27;7.20;;;3.20;88.50;;;;;;5001898;28;20465;-61
2022/11/21 07:18:31;;;;;;;10.57;7.20;;;3.20;88.30;;;;;;5027289;28;20187;-61
2022/11/21 07:21:04;;;;;;;13.60;9.70;;;3.20;88.40;;;;;;5014618;28;20511;-61
2022/11/21 07:23:30;;;;;;;13.63;9.03;;;3.30;88.30;;;;;;4997926;28;20453;-61
2022/11/21 07:26:05;;;;;;;18.17;10.70;;;3.30;88.40;;;;;;5015287;28;20433;-61
2022/11/21 07:28:32;;;;;;;13.07;10.03;;;3.30;88.30;;;;;;5014643;28;20498;-61
2022/11/21 07:30:59;;;;;;;15.20;10.40;;;3.30;88.50;;;;;;5014740;28;20415;-61
2022/11/21 07:33:26;;;;;;;14.03;10.03;;;3.40;88.50;;;;;;5014400;28;20450;-61
2022/11/21 07:35:53;;;;;;;14.80;9.67;;;3.40;88.50;;;;;;5015161;28;20513;-61
2022/11/21 07:38:19;;;;;;;13.97;9.80;;;3.40;88.40;;;;;;5015488;28;20440;-61
2022/11/21 07:40:45;;;;;;;14.40;9.50;;;3.50;88.50;;;;;;5014637;28;20450;-61
2022/11/21 07:43:10;;;;;;;14.07;9.77;;;3.50;88.60;;;;;;5005904;28;20192;-61
2022/11/21 07:45:37;;;;;;;15.13;11.00;;;3.60;88.60;;;;;;5026929;28;20658;-61
2022/11/21 07:48:04;;;;;;;15.63;10.70;;;3.60;88.60;;;;;;5014247;28;20653;-61
2022/11/21 07:50:31;;;;;;;16.60;11.07;;;3.70;88.50;;;;;;5031271;28;20426;-61
2022/11/21 07:53:02;;;;;;;17.17;11.07;;;3.80;88.60;;;;;;5008258;28;21007;-61
2022/11/21 07:55:30;;;;;;;15.40;10.90;;;3.70;87.70;;;;;;5024343;28;20530;-61
2022/11/21 07:58:15;;;;;;;13.87;9.50;;;3.70;87.90;;;;;;5013375;28;20441;-61
2022/11/21 08:00:41;;;;;;;18.53;10.27;;;3.80;88.10;;;;;;5027248;28;20510;-61
2022/11/21 08:03:07;;;;;;;13.83;10.93;;;3.80;87.40;;;;;;5027628;28;20523;-61
2022/11/21 08:05:41;;;;;;;15.50;11.03;;;3.80;87.60;;;;;;5030142;28;20627;-61
2022/11/21 08:08:07;;;;;;;16.33;11.20;;;3.80;87.50;;;;;;4996933;28;20513;-62
2022/11/21 08:10:36;;;;;;;18.87;10.87;;;3.90;87.40;;;;;;5014159;28;20449;-61
2022/11/21 08:13:01;;;;;;;20.10;10.23;;;3.90;87.40;;;;;;5014243;28;20917;-61
2022/11/21 08:15:27;;;;;;;16.33;10.03;;;4.00;87.40;;;;;;5013994;28;20481;-61
2022/11/21 08:17:53;;;;;;;13.30;9.70;;;4.10;87.40;;;;;;5044771;28;20561;-61
2022/11/21 08:20:18;;;;;;;13.77;10.20;;;4.20;87.50;;;;;;4984254;28;20698;-61
2022/11/21 08:22:44;;;;;;;13.37;8.67;;;4.20;87.10;;;;;;5000536;28;20686;-61
2022/11/21 08:25:10;;;;;;;13.07;8.23;;;4.30;87.20;;;;;;4997118;28;20190;-62
2022/11/21 08:27:37;;;;;;;11.37;8.77;;;4.30;86.50;;;;;;5015250;28;20184;-62
2022/11/21 08:30:09;;;;;;;14.90;9.40;;;4.30;86.00;;;;;;5010600;28;20510;-61
2022/11/21 08:32:35;;;;;;;16.33;9.07;;;4.40;86.10;;;;;;5011986;28;20501;-61
2022/11/21 08:35:01;;;;;;;12.77;8.77;;;4.50;86.20;;;;;;5007463;28;20427;-61
2022/11/21 08:37:30;;;;;;;13.43;8.83;;;4.60;85.60;;;;;;5029651;28;20179;-62
2022/11/21 08:39:59;;;;;;;12.87;8.93;;;4.60;85.60;;;;;;5036635;28;20191;-61
2022/11/21 08:42:25;;;;;;;16.47;9.10;;;4.70;85.00;;;;;;5028768;28;20449;-62
2022/11/21 08:44:51;;;;;;;12.73;8.00;;;4.80;85.50;;;;;;5001287;28;20496;-61
2022/11/21 08:47:17;;;;;;;13.17;8.70;;;4.90;85.30;;;;;;5012338;28;20184;-61
2022/11/21 08:49:42;;;;;;;30.10;9.13;;;5.00;84.70;;;;;;5018030;28;20243;-61
2022/11/21 08:52:08;;;;;;;11.90;8.57;;;4.90;83.80;;;;;;4997073;28;20274;-61
2022/11/21 08:54:34;;;;;;;13.13;9.00;;;5.10;84.50;;;;;;5037408;28;20282;-61
2022/11/21 08:56:59;;;;;;;13.27;8.70;;;5.10;83.90;;;;;;5023895;28;20279;-61
2022/11/21 08:59:25;;;;;;;11.27;7.90;;;5.20;84.50;;;;;;5013678;28;20219;-61
2022/11/21 09:01:51;;;;;;;12.93;7.70;;;5.30;84.40;;;;;;5012866;28;20191;-61
2022/11/21 09:04:17;;;;;;;11.67;7.73;;;5.30;84.20;;;;;;4993851;28;20200;-61
2022/11/21 09:06:43;;;;;;;10.00;7.10;;;5.40;84.00;;;;;;5024673;28;20634;-61
2022/11/21 09:09:09;;;;;;;10.47;7.43;;;5.50;83.90;;;;;;5013928;28;20530;-61
2022/11/21 09:11:36;;;;;;;10.87;7.87;;;5.60;83.50;;;;;;4997837;28;20222;-61
2022/11/21 09:19:47;;;;;;;10.63;6.30;;;5.70;81.80;;;;;;5024411;28;20539;-61
2022/11/21 09:22:12;;;;;;;7.50;6.10;;;5.80;81.80;;;;;;5012480;28;20442;-61
2022/11/21 09:24:38;;;;;;;7.40;5.73;;;5.80;81.80;;;;;;4995281;28;20230;-61
2022/11/21 09:27:03;;;;;;;8.63;6.77;;;5.80;81.50;;;;;;4984779;28;20192;-61
2022/11/21 09:29:57;;;;;;;7.50;6.00;;;5.90;81.50;;;;;;5003734;28;20674;-62
2022/11/21 09:32:23;;;;;;;11.17;6.20;;;6.00;80.70;;;;;;5009405;28;20187;-62
2022/11/21 09:34:49;;;;;;;11.63;5.77;;;6.00;80.40;;;;;;5014725;28;20426;-61
2022/11/21 09:37:14;;;;;;;9.53;5.07;;;6.00;80.80;;;;;;4997313;28;20282;-61
2022/11/21 09:39:43;;;;;;;8.50;6.27;;;6.10;80.70;;;;;;5030094;28;20245;-61
2022/11/21 09:42:25;;;;;;;7.03;5.47;;;6.10;80.90;;;;;;5010662;28;20670;-61
2022/11/21 09:44:57;;;;;;;9.93;6.50;;;6.20;81.10;;;;;;5028285;28;20438;-62
2022/11/21 09:48:01;;;;;;;9.57;6.13;;;6.20;80.00;;;;;;5029682;28;20434;-62
2022/11/21 09:50:35;;;;;;;8.30;6.30;;;6.10;79.10;;;;;;5010323;28;20469;-62
2022/11/21 09:53:25;;;;;;;12.23;6.77;;;6.20;79.30;;;;;;5030645;28;20437;-62
2022/11/21 09:55:53;;;;;;;9.57;6.23;;;6.10;78.40;;;;;;5026718;28;20441;-62
2022/11/21 09:58:42;;;;;;;8.93;7.20;;;6.10;78.40;;;;;;5011081;28;20432;-61
2022/11/21 10:01:11;;;;;;;9.27;6.93;;;6.10;79.30;;;;;;5010978;28;20430;-61
2022/11/21 10:03:44;;;;;;;9.53;6.87;;;6.20;78.80;;;;;;5010755;28;20415;-61
2022/11/21 10:06:15;;;;;;;8.90;6.43;;;6.30;79.20;;;;;;5011803;28;20426;-61
2022/11/21 10:08:51;;;;;;;14.50;7.67;;;6.30;78.10;;;;;;5012716;28;20477;-61
2022/11/21 10:11:35;;;;;;;18.33;8.57;;;6.30;77.30;;;;;;5011360;28;20456;-61
2022/11/21 10:14:23;;;;;;;9.07;7.97;;;6.40;77.50;;;;;;5027723;28;20476;-61
2022/11/21 10:16:59;;;;;;;16.67;8.63;;;6.50;78.90;;;;;;5010377;28;20526;-61
2022/11/21 10:19:48;;;;;;;8.60;7.70;;;6.60;77.80;;;;;;5003969;28;20545;-62
2022/11/21 10:22:33;;;;;;;9.60;6.50;;;6.70;77.60;;;;;;5025126;28;20552;-61
2022/11/21 10:25:23;;;;;;;9.90;8.47;;;6.80;77.40;;;;;;5011391;28;20433;-61
2022/11/21 10:28:07;;;;;;;9.53;6.93;;;6.90;75.80;;;;;;5012268;28;20438;-62
2022/11/21 10:30:34;;;;;;;8.63;7.10;;;7.10;76.00;;;;;;5008775;28;20427;-62
2022/11/21 10:33:04;;;;;;;11.47;7.00;;;7.30;77.30;;;;;;5009755;28;20426;-61
2022/11/21 10:36:01;;;;;;;11.30;6.20;;;7.30;75.60;;;;;;5027183;28;20422;-62
2022/11/21 10:38:28;;;;;;;11.07;7.00;;;7.50;75.80;;;;;;4999373;28;20450;-62
2022/11/21 10:41:05;;;;;;;15.47;7.73;;;7.50;74.00;;;;;;5043365;28;20506;-62
2022/11/21 10:47:00;;;;;;;15.03;8.73;;;7.50;74.20;;;;;;5005825;28;20449;-62
2022/11/21 10:49:29;;;;;;;10.40;9.30;;;7.50;73.70;;;;;;5016278;28;20462;-61
2022/11/21 10:52:13;;;;;;;11.60;7.87;;;7.60;74.60;;;;;;5028793;28;20422;-61
2022/11/21 10:55:02;;;;;;;11.77;8.10;;;7.70;75.20;;;;;;5014637;28;20428;-62
2022/11/21 10:57:35;;;;;;;11.43;8.20;;;7.60;73.70;;;;;;5009125;28;20516;-61
2022/11/21 11:00:12;;;;;;;13.03;7.43;;;7.60;73.70;;;;;;5008037;28;20449;-61
2022/11/21 11:02:40;;;;;;;10.83;7.80;;;7.50;74.50;;;;;;5025050;28;20453;-61
2022/11/21 11:05:23;;;;;;;11.53;8.47;;;7.60;74.60;;;;;;5011538;28;20430;-62
2022/11/21 11:08:09;;;;;;;15.80;9.13;;;7.60;73.90;;;;;;5000608;28;20438;-61
2022/11/21 11:10:48;;;;;;;13.90;10.43;;;7.70;74.70;;;;;;5009413;28;20442;-61
2022/11/21 11:13:32;;;;;;;13.07;8.63;;;7.60;74.00;;;;;;5010794;28;20975;-62
2022/11/21 11:16:05;;;;;;;16.17;9.57;;;7.80;74.80;;;;;;5012598;28;20415;-61
2022/11/21 11:18:48;;;;;;;16.63;9.00;;;7.70;74.30;;;;;;5026806;28;20439;-62
2022/11/21 11:21:17;;;;;;;13.07;9.17;;;7.80;75.70;;;;;;5024252;28;20510;-61
2022/11/21 11:23:45;;;;;;;15.07;8.77;;;7.90;75.20;;;;;;5011133;28;20472;-61
2022/11/21 11:26:22;;;;;;;11.60;8.27;;;7.90;73.20;;;;;;5011234;28;20435;-61
2022/11/21 11:28:48;;;;;;;12.87;8.20;;;8.10;73.60;;;;;;5025516;28;20477;-61
2022/11/21 11:31:14;;;;;;;13.13;8.43;;;8.30;72.20;;;;;;5009772;28;20431;-61
2022/11/21 11:33:49;;;;;;;10.73;7.70;;;8.40;72.10;;;;;;4998085;28;20441;-61
2022/11/21 11:36:14;;;;;;;12.30;7.77;;;8.60;70.90;;;;;;5007883;28;20183;-61
2022/11/21 11:38:52;;;;;;;9.90;8.23;;;8.70;70.50;;;;;;5010841;28;20917;-62
2022/11/21 11:48:09;;;;;;;13.90;8.33;;;8.90;69.80;;;;;;4971736;28;20467;-62
2022/11/21 12:07:52;;;;;;;13.87;8.13;;;9.50;69.60;;;;;;5015957;28;20422;-61
2022/11/21 12:10:31;;;;;;;10.40;7.23;;;9.50;69.60;;;;;;5015011;28;20565;-61
2022/11/21 12:13:10;;;;;;;9.63;7.43;;;9.30;68.90;;;;;;5014713;28;20415;-61
2022/11/21 12:15:49;;;;;;;12.17;7.83;;;9.30;69.30;;;;;;5024381;28;20435;-61
2022/11/21 12:18:23;;;;;;;11.60;7.63;;;9.20;68.40;;;;;;5012565;28;20191;-61
2022/11/21 12:20:55;;;;;;;15.00;8.73;;;9.30;69.50;;;;;;5028901;28;20507;-62
2022/11/21 12:23:30;;;;;;;11.37;8.00;;;9.30;69.90;;;;;;5029610;28;20423;-62
2022/11/21 12:26:07;;;;;;;12.83;7.93;;;9.40;69.00;;;;;;5012839;28;20441;-61
2022/11/21 12:29:12;;;;;;;15.33;8.73;;;9.50;69.20;;;;;;5013507;28;20473;-62
2022/11/21 12:31:50;;;;;;;10.97;7.93;;;9.70;70.00;;;;;;5030196;28;20223;-61
2022/11/21 12:34:22;;;;;;;12.80;7.73;;;9.90;68.80;;;;;;5009943;28;20685;-61
2022/11/21 12:37:26;;;;;;;8.07;6.43;;;9.90;66.50;;;;;;5012167;28;20475;-61
2022/11/21 12:40:04;;;;;;;11.57;7.07;;;10.10;67.60;;;;;;5023375;28;20196;-61
2022/11/21 12:42:51;;;;;;;10.37;7.20;;;10.00;66.50;;;;;;5036987;28;20452;-62
2022/11/21 12:45:57;;;;;;;9.60;6.93;;;10.00;66.70;;;;;;5014730;28;20191;-62
2022/11/21 12:54:47;;;;;;;15.17;7.93;;;10.20;66.30;;;;;;5011209;28;20421;-62
2022/11/21 12:57:20;;;;;;;11.50;6.80;;;10.20;66.10;;;;;;5029967;28;20191;-62
2022/11/21 12:59:55;;;;;;;9.50;7.80;;;10.30;66.90;;;;;;4301534;28;22276;-61
2022/11/21 13:02:46;;;;;;;12.63;8.10;;;10.30;66.10;;;;;;3911869;28;20701;-61
2022/11/21 13:08:33;;;;;;;10.43;7.33;;;10.30;64.70;;;;;;3963119;28;22125;-61
2022/11/21 13:14:10;;;;;;;10.90;8.07;;;10.50;65.10;;;;;;3629270;28;20190;-62
2022/11/21 13:16:43;;;;;;;8.93;6.87;;;10.50;64.00;;;;;;4450818;28;21959;-61
2022/11/21 13:19:33;;;;;;;8.60;5.83;;;10.40;63.10;;;;;;3787006;28;20231;-61
2022/11/21 13:21:58;;;;;;;10.50;7.17;;;10.50;64.10;;;;;;5012833;28;20184;-62
2022/11/21 13:24:43;;;;;;;9.33;7.10;;;10.60;63.90;;;;;;3821815;28;20932;-61
2022/11/21 13:27:24;;;;;;;11.23;7.57;;;10.40;63.10;;;;;;5028249;28;20187;-62
2022/11/21 13:30:15;;;;;;;9.13;7.23;;;10.30;64.20;;;;;;4448400;28;20867;-61
2022/11/21 13:32:42;;;;;;;9.30;6.10;;;10.30;64.60;;;;;;5004362;28;20207;-61
2022/11/21 13:35:20;;;;;;;8.70;6.37;;;10.30;65.10;;;;;;3603303;28;22127;-61
2022/11/21 13:38:07;;;;;;;10.33;6.27;;;10.30;63.80;;;;;;3505006;28;21718;-61
2022/11/21 13:40:38;;;;;;;11.90;6.60;;;10.20;65.00;;;;;;4439886;28;20191;-61
2022/11/21 13:43:18;;;;;;;10.00;7.00;;;9.80;64.70;;;;;;5029197;28;20290;-62
2022/11/21 13:45:51;;;;;;;8.47;6.50;;;9.90;65.30;;;;;;5028909;28;20607;-62
2022/11/21 13:48:59;;;;;;;8.70;6.70;;;10.00;65.70;;;;;;5013105;28;20192;-62
2022/11/21 13:51:49;;;;;;;8.67;5.97;;;10.10;65.00;;;;;;4973572;28;20275;-61
2022/11/21 13:54:29;;;;;;;9.07;7.60;;;10.10;65.80;;;;;;4985924;28;20180;-61
2022/11/21 13:57:23;;;;;;;11.13;6.60;;;10.20;65.80;;;;;;5001229;28;20206;-61
2022/11/21 13:59:54;;;;;;;13.60;7.27;;;10.20;65.00;;;;;;5024658;28;20188;-61
2022/11/21 14:02:38;;;;;;;8.57;6.80;;;9.90;64.90;;;;;;5027852;28;20192;-61